sensor_id;sensor_type;location;lat;lon;timestamp;temperature;humidity
69084;SHT31;56185;48.526;9.044;2023-09-18T00:01:42;19.89;70.69
69084;SHT31;56185;48.526;9.044;2023-09-18T00:04:09;19.92;70.96
69084;SHT31;56185;48.526;9.044;2023-09-18T00:06:34;19.90;71.56
69084;SHT31;56185;48.526;9.044;2023-09-18T00:08:59;19.90;71.71
69084;SHT31;56185;48.526;9.044;2023-09-18T00:11:25;19.79;71.87
69084;SHT31;56185;48.526;9.044;2023-09-18T00:13:50;19.72;72.16
69084;SHT31;56185;48.526;9.044;2023-09-18T00:16:15;19.78;71.97
69084;SHT31;56185;48.526;9.044;2023-09-18T00:18:40;19.78;72.09
69084;SHT31;56185;48.526;9.044;2023-09-18T00:21:06;19.83;71.52
69084;SHT31;56185;48.526;9.044;2023-09-18T00:23:31;19.83;71.95
69084;SHT31;56185;48.526;9.044;2023-09-18T00:25:57;19.69;72.61
69084;SHT31;56185;48.526;9.044;2023-09-18T00:28:22;19.71;72.36
69084;SHT31;56185;48.526;9.044;2023-09-18T00:30:48;19.82;72.10
69084;SHT31;56185;48.526;9.044;2023-09-18T00:33:14;19.88;70.91
69084;SHT31;56185;48.526;9.044;2023-09-18T00:35:39;19.92;70.65
69084;SHT31;56185;48.526;9.044;2023-09-18T00:38:04;19.93;70.26
69084;SHT31;56185;48.526;9.044;2023-09-18T00:40:30;19.95;70.16
69084;SHT31;56185;48.526;9.044;2023-09-18T00:42:55;19.92;70.58
69084;SHT31;56185;48.526;9.044;2023-09-18T00:45:20;19.98;70.57
69084;SHT31;56185;48.526;9.044;2023-09-18T00:47:45;19.92;70.53
69084;SHT31;56185;48.526;9.044;2023-09-18T00:50:12;20.04;70.14
69084;SHT31;56185;48.526;9.044;2023-09-18T00:52:38;19.95;70.24
69084;SHT31;56185;48.526;9.044;2023-09-18T00:55:05;19.96;69.87
69084;SHT31;56185;48.526;9.044;2023-09-18T00:57:31;19.96;69.83
69084;SHT31;56185;48.526;9.044;2023-09-18T00:59:56;19.82;69.93
69084;SHT31;56185;48.526;9.044;2023-09-18T01:02:22;19.65;71.12
69084;SHT31;56185;48.526;9.044;2023-09-18T01:04:48;19.59;70.84
69084;SHT31;56185;48.526;9.044;2023-09-18T01:07:14;19.46;72.10
69084;SHT31;56185;48.526;9.044;2023-09-18T01:09:39;19.59;70.98
69084;SHT31;56185;48.526;9.044;2023-09-18T01:12:24;19.64;70.89
69084;SHT31;56185;48.526;9.044;2023-09-18T01:15:44;19.76;70.57
69084;SHT31;56185;48.526;9.044;2023-09-18T01:18:09;19.44;71.22
69084;SHT31;56185;48.526;9.044;2023-09-18T01:20:34;19.30;71.45
69084;SHT31;56185;48.526;9.044;2023-09-18T01:22:59;19.30;71.64
69084;SHT31;56185;48.526;9.044;2023-09-18T01:25:25;19.32;71.69
69084;SHT31;56185;48.526;9.044;2023-09-18T01:27:50;19.37;71.34
69084;SHT31;56185;48.526;9.044;2023-09-18T01:30:15;19.21;72.22
69084;SHT31;56185;48.526;9.044;2023-09-18T01:32:41;19.59;70.41
69084;SHT31;56185;48.526;9.044;2023-09-18T01:35:08;19.64;70.83
69084;SHT31;56185;48.526;9.044;2023-09-18T01:37:34;19.55;74.57
69084;SHT31;56185;48.526;9.044;2023-09-18T01:40:01;19.39;74.95
69084;SHT31;56185;48.526;9.044;2023-09-18T01:42:28;19.38;76.66
69084;SHT31;56185;48.526;9.044;2023-09-18T01:44:54;19.46;77.27
69084;SHT31;56185;48.526;9.044;2023-09-18T01:47:22;19.48;76.55
69084;SHT31;56185;48.526;9.044;2023-09-18T01:49:47;19.72;76.57
69084;SHT31;56185;48.526;9.044;2023-09-18T01:52:13;19.67;77.19
69084;SHT31;56185;48.526;9.044;2023-09-18T01:54:38;19.65;77.10
69084;SHT31;56185;48.526;9.044;2023-09-18T01:57:04;19.65;77.63
69084;SHT31;56185;48.526;9.044;2023-09-18T01:59:29;19.67;77.16
69084;SHT31;56185;48.526;9.044;2023-09-18T02:01:55;19.71;76.92
69084;SHT31;56185;48.526;9.044;2023-09-18T02:04:21;19.64;78.04
69084;SHT31;56185;48.526;9.044;2023-09-18T02:06:49;19.85;77.01
69084;SHT31;56185;48.526;9.044;2023-09-18T02:09:16;19.72;78.91
69084;SHT31;56185;48.526;9.044;2023-09-18T02:11:43;19.61;77.72
69084;SHT31;56185;48.526;9.044;2023-09-18T02:14:09;19.50;77.92
69084;SHT31;56185;48.526;9.044;2023-09-18T02:16:37;19.46;77.08
69084;SHT31;56185;48.526;9.044;2023-09-18T02:19:03;19.32;78.26
69084;SHT31;56185;48.526;9.044;2023-09-18T02:21:29;19.38;78.19
69084;SHT31;56185;48.526;9.044;2023-09-18T02:23:54;19.38;78.17
69084;SHT31;56185;48.526;9.044;2023-09-18T02:26:20;19.30;79.48
69084;SHT31;56185;48.526;9.044;2023-09-18T02:28:45;19.32;78.59
69084;SHT31;56185;48.526;9.044;2023-09-18T02:31:12;19.32;78.83
69084;SHT31;56185;48.526;9.044;2023-09-18T02:33:38;19.21;79.79
69084;SHT31;56185;48.526;9.044;2023-09-18T02:36:03;19.20;78.17
69084;SHT31;56185;48.526;9.044;2023-09-18T02:38:28;19.37;77.70
69084;SHT31;56185;48.526;9.044;2023-09-18T02:40:54;19.44;77.45
69084;SHT31;56185;48.526;9.044;2023-09-18T02:43:19;19.55;76.69
69084;SHT31;56185;48.526;9.044;2023-09-18T02:45:44;19.48;77.10
69084;SHT31;56185;48.526;9.044;2023-09-18T02:48:09;19.50;77.13
69084;SHT31;56185;48.526;9.044;2023-09-18T02:50:40;19.47;77.43
69084;SHT31;56185;48.526;9.044;2023-09-18T02:53:07;19.32;77.47
69084;SHT31;56185;48.526;9.044;2023-09-18T02:55:32;19.30;78.17
69084;SHT31;56185;48.526;9.044;2023-09-18T02:57:58;19.28;78.86
69084;SHT31;56185;48.526;9.044;2023-09-18T03:00:23;19.14;78.18
69084;SHT31;56185;48.526;9.044;2023-09-18T03:02:48;19.16;79.67
69084;SHT31;56185;48.526;9.044;2023-09-18T03:05:13;19.20;79.98
69084;SHT31;56185;48.526;9.044;2023-09-18T03:07:40;19.11;79.26
69084;SHT31;56185;48.526;9.044;2023-09-18T03:10:05;19.13;80.12
69084;SHT31;56185;48.526;9.044;2023-09-18T03:12:31;19.17;80.41
69084;SHT31;56185;48.526;9.044;2023-09-18T03:14:56;19.02;78.93
69084;SHT31;56185;48.526;9.044;2023-09-18T03:17:21;19.00;79.83
69084;SHT31;56185;48.526;9.044;2023-09-18T03:19:49;19.06;79.47
69084;SHT31;56185;48.526;9.044;2023-09-18T03:22:15;19.06;80.39
69084;SHT31;56185;48.526;9.044;2023-09-18T03:24:40;19.07;78.94
69084;SHT31;56185;48.526;9.044;2023-09-18T03:27:06;19.07;79.04
69084;SHT31;56185;48.526;9.044;2023-09-18T03:29:31;19.09;79.44
69084;SHT31;56185;48.526;9.044;2023-09-18T03:31:56;19.26;78.56
69084;SHT31;56185;48.526;9.044;2023-09-18T03:34:21;19.38;78.58
69084;SHT31;56185;48.526;9.044;2023-09-18T03:36:47;19.41;77.70
69084;SHT31;56185;48.526;9.044;2023-09-18T03:39:12;19.54;77.59
69084;SHT31;56185;48.526;9.044;2023-09-18T03:41:37;19.61;77.74
69084;SHT31;56185;48.526;9.044;2023-09-18T03:44:02;19.57;76.78
69084;SHT31;56185;48.526;9.044;2023-09-18T03:46:28;19.46;76.69
69084;SHT31;56185;48.526;9.044;2023-09-18T03:48:53;19.43;76.69
69084;SHT31;56185;48.526;9.044;2023-09-18T03:51:18;19.39;76.66
69084;SHT31;56185;48.526;9.044;2023-09-18T03:53:44;19.48;76.58
69084;SHT31;56185;48.526;9.044;2023-09-18T03:56:09;19.53;76.20
69084;SHT31;56185;48.526;9.044;2023-09-18T03:58:34;19.57;76.12
69084;SHT31;56185;48.526;9.044;2023-09-18T04:01:00;19.59;76.65
69084;SHT31;56185;48.526;9.044;2023-09-18T04:03:25;19.61;77.03
69084;SHT31;56185;48.526;9.044;2023-09-18T04:05:51;19.47;76.98
69084;SHT31;56185;48.526;9.044;2023-09-18T04:08:16;19.43;77.71
69084;SHT31;56185;48.526;9.044;2023-09-18T04:10:41;19.46;77.21
69084;SHT31;56185;48.526;9.044;2023-09-18T04:13:06;19.43;77.47
69084;SHT31;56185;48.526;9.044;2023-09-18T04:15:32;19.38;77.53
69084;SHT31;56185;48.526;9.044;2023-09-18T04:17:57;19.34;77.67
69084;SHT31;56185;48.526;9.044;2023-09-18T04:20:22;19.26;78.06
69084;SHT31;56185;48.526;9.044;2023-09-18T04:22:48;19.30;78.17
69084;SHT31;56185;48.526;9.044;2023-09-18T04:25:33;19.30;78.26
69084;SHT31;56185;48.526;9.044;2023-09-18T04:27:58;19.24;78.64
69084;SHT31;56185;48.526;9.044;2023-09-18T04:30:23;19.17;78.67
69084;SHT31;56185;48.526;9.044;2023-09-18T04:32:49;19.07;79.15
69084;SHT31;56185;48.526;9.044;2023-09-18T04:35:14;19.09;79.05
69084;SHT31;56185;48.526;9.044;2023-09-18T04:37:39;19.02;79.16
69084;SHT31;56185;48.526;9.044;2023-09-18T04:40:06;19.16;79.06
69084;SHT31;56185;48.526;9.044;2023-09-18T04:42:31;19.10;78.80
69084;SHT31;56185;48.526;9.044;2023-09-18T04:44:56;18.99;79.01
69084;SHT31;56185;48.526;9.044;2023-09-18T04:47:22;18.99;79.19
69084;SHT31;56185;48.526;9.044;2023-09-18T04:49:47;19.06;79.52
69084;SHT31;56185;48.526;9.044;2023-09-18T04:52:12;19.09;79.49
69084;SHT31;56185;48.526;9.044;2023-09-18T04:54:37;19.03;79.83
69084;SHT31;56185;48.526;9.044;2023-09-18T04:57:03;19.20;79.31
69084;SHT31;56185;48.526;9.044;2023-09-18T04:59:28;19.13;79.17
69084;SHT31;56185;48.526;9.044;2023-09-18T05:01:53;19.09;79.56
69084;SHT31;56185;48.526;9.044;2023-09-18T05:04:18;19.11;78.83
69084;SHT31;56185;48.526;9.044;2023-09-18T05:06:44;19.09;79.55
69084;SHT31;56185;48.526;9.044;2023-09-18T05:09:09;19.18;79.38
69084;SHT31;56185;48.526;9.044;2023-09-18T05:11:34;19.13;79.53
69084;SHT31;56185;48.526;9.044;2023-09-18T05:13:59;19.09;79.68
69084;SHT31;56185;48.526;9.044;2023-09-18T05:16:25;19.14;79.79
69084;SHT31;56185;48.526;9.044;2023-09-18T05:18:50;19.26;79.58
69084;SHT31;56185;48.526;9.044;2023-09-18T05:21:15;19.21;79.80
69084;SHT31;56185;48.526;9.044;2023-09-18T05:23:40;19.26;79.81
69084;SHT31;56185;48.526;9.044;2023-09-18T05:26:06;19.30;79.63
69084;SHT31;56185;48.526;9.044;2023-09-18T05:28:31;19.28;78.77
69084;SHT31;56185;48.526;9.044;2023-09-18T05:30:56;19.26;79.64
69084;SHT31;56185;48.526;9.044;2023-09-18T05:33:21;19.37;79.67
69084;SHT31;56185;48.526;9.044;2023-09-18T05:35:47;19.32;79.10
69084;SHT31;56185;48.526;9.044;2023-09-18T05:38:13;19.46;78.91
69084;SHT31;56185;48.526;9.044;2023-09-18T05:40:39;19.53;79.06
69084;SHT31;56185;48.526;9.044;2023-09-18T05:43:05;19.61;78.07
69084;SHT31;56185;48.526;9.044;2023-09-18T05:45:30;19.68;78.20
69084;SHT31;56185;48.526;9.044;2023-09-18T05:47:55;19.69;78.85
69084;SHT31;56185;48.526;9.044;2023-09-18T05:50:20;19.67;78.69
69084;SHT31;56185;48.526;9.044;2023-09-18T05:52:47;19.69;78.57
69084;SHT31;56185;48.526;9.044;2023-09-18T05:55:14;19.75;78.31
69084;SHT31;56185;48.526;9.044;2023-09-18T05:57:39;19.72;78.99
69084;SHT31;56185;48.526;9.044;2023-09-18T06:00:05;19.74;78.28
69084;SHT31;56185;48.526;9.044;2023-09-18T06:02:31;19.76;78.53
69084;SHT31;56185;48.526;9.044;2023-09-18T06:04:57;19.78;78.48
69084;SHT31;56185;48.526;9.044;2023-09-18T06:07:24;19.85;77.90
69084;SHT31;56185;48.526;9.044;2023-09-18T06:09:49;19.82;78.38
69084;SHT31;56185;48.526;9.044;2023-09-18T06:12:15;19.75;78.61
69084;SHT31;56185;48.526;9.044;2023-09-18T06:14:40;19.93;77.26
69084;SHT31;56185;48.526;9.044;2023-09-18T06:17:05;19.88;77.88
69084;SHT31;56185;48.526;9.044;2023-09-18T06:19:30;19.89;78.15
69084;SHT31;56185;48.526;9.044;2023-09-18T06:21:56;19.89;77.97
69084;SHT31;56185;48.526;9.044;2023-09-18T06:24:21;19.85;77.89
69084;SHT31;56185;48.526;9.044;2023-09-18T06:26:46;19.85;78.55
69084;SHT31;56185;48.526;9.044;2023-09-18T06:29:11;19.88;78.73
69084;SHT31;56185;48.526;9.044;2023-09-18T06:31:37;19.82;78.81
69084;SHT31;56185;48.526;9.044;2023-09-18T06:34:02;19.89;78.78
69084;SHT31;56185;48.526;9.044;2023-09-18T06:36:27;19.83;79.22
69084;SHT31;56185;48.526;9.044;2023-09-18T06:38:52;19.96;79.27
69084;SHT31;56185;48.526;9.044;2023-09-18T06:41:18;19.89;79.45
69084;SHT31;56185;48.526;9.044;2023-09-18T06:43:43;19.92;78.38
69084;SHT31;56185;48.526;9.044;2023-09-18T06:46:08;19.76;78.28
69084;SHT31;56185;48.526;9.044;2023-09-18T06:48:33;19.86;78.16
69084;SHT31;56185;48.526;9.044;2023-09-18T06:50:59;19.93;78.25
69084;SHT31;56185;48.526;9.044;2023-09-18T06:53:24;19.92;77.87
69084;SHT31;56185;48.526;9.044;2023-09-18T06:55:49;20.02;77.83
69084;SHT31;56185;48.526;9.044;2023-09-18T06:58:15;20.00;77.76
69084;SHT31;56185;48.526;9.044;2023-09-18T07:00:40;19.88;77.67
69084;SHT31;56185;48.526;9.044;2023-09-18T07:03:05;20.00;77.57
69084;SHT31;56185;48.526;9.044;2023-09-18T07:05:30;20.09;77.19
69084;SHT31;56185;48.526;9.044;2023-09-18T07:07:55;20.15;76.83
69084;SHT31;56185;48.526;9.044;2023-09-18T07:10:21;20.12;77.28
69084;SHT31;56185;48.526;9.044;2023-09-18T07:12:46;20.20;77.44
69084;SHT31;56185;48.526;9.044;2023-09-18T07:15:11;20.25;76.67
69084;SHT31;56185;48.526;9.044;2023-09-18T07:17:36;20.32;77.31
69084;SHT31;56185;48.526;9.044;2023-09-18T07:20:02;20.30;77.27
69084;SHT31;56185;48.526;9.044;2023-09-18T07:22:27;20.36;78.07
69084;SHT31;56185;48.526;9.044;2023-09-18T07:24:52;20.40;79.30
69084;SHT31;56185;48.526;9.044;2023-09-18T07:27:17;20.44;78.80
69084;SHT31;56185;48.526;9.044;2023-09-18T07:29:43;20.48;78.35
69084;SHT31;56185;48.526;9.044;2023-09-18T07:32:08;20.44;78.13
69084;SHT31;56185;48.526;9.044;2023-09-18T07:34:33;20.43;78.01
69084;SHT31;56185;48.526;9.044;2023-09-18T07:36:58;20.44;78.02
69084;SHT31;56185;48.526;9.044;2023-09-18T07:39:24;20.43;78.12
69084;SHT31;56185;48.526;9.044;2023-09-18T07:41:49;20.43;78.33
69084;SHT31;56185;48.526;9.044;2023-09-18T07:44:21;20.47;78.73
69084;SHT31;56185;48.526;9.044;2023-09-18T07:46:46;20.63;79.06
69084;SHT31;56185;48.526;9.044;2023-09-18T07:49:11;20.68;78.24
69084;SHT31;56185;48.526;9.044;2023-09-18T07:51:37;20.68;78.85
69084;SHT31;56185;48.526;9.044;2023-09-18T07:54:02;20.87;78.79
69084;SHT31;56185;48.526;9.044;2023-09-18T07:56:28;20.77;77.94
69084;SHT31;56185;48.526;9.044;2023-09-18T07:58:53;20.90;77.78
69084;SHT31;56185;48.526;9.044;2023-09-18T08:01:18;20.92;76.27
69084;SHT31;56185;48.526;9.044;2023-09-18T08:03:43;20.85;76.39
69084;SHT31;56185;48.526;9.044;2023-09-18T08:06:09;20.74;75.61
69084;SHT31;56185;48.526;9.044;2023-09-18T08:08:34;20.71;75.26
69084;SHT31;56185;48.526;9.044;2023-09-18T08:11:07;20.66;75.90
69084;SHT31;56185;48.526;9.044;2023-09-18T08:13:32;20.61;76.02
69084;SHT31;56185;48.526;9.044;2023-09-18T08:15:57;20.40;76.11
69084;SHT31;56185;48.526;9.044;2023-09-18T08:18:23;20.50;77.07
69084;SHT31;56185;48.526;9.044;2023-09-18T08:20:48;20.43;76.56
69084;SHT31;56185;48.526;9.044;2023-09-18T08:23:13;20.39;77.14
69084;SHT31;56185;48.526;9.044;2023-09-18T08:25:38;20.25;78.31
69084;SHT31;56185;48.526;9.044;2023-09-18T08:28:04;20.16;79.11
69084;SHT31;56185;48.526;9.044;2023-09-18T08:30:29;19.88;79.65
69084;SHT31;56185;48.526;9.044;2023-09-18T08:32:54;19.93;79.79
69084;SHT31;56185;48.526;9.044;2023-09-18T08:35:19;19.75;80.20
69084;SHT31;56185;48.526;9.044;2023-09-18T08:37:45;19.72;81.33
69084;SHT31;56185;48.526;9.044;2023-09-18T08:40:11;19.82;81.61
69084;SHT31;56185;48.526;9.044;2023-09-18T08:42:45;19.79;80.76
69084;SHT31;56185;48.526;9.044;2023-09-18T08:45:15;19.64;81.80
69084;SHT31;56185;48.526;9.044;2023-09-18T08:47:42;19.69;82.08
69084;SHT31;56185;48.526;9.044;2023-09-18T08:50:09;19.74;81.15
69084;SHT31;56185;48.526;9.044;2023-09-18T08:52:36;19.54;81.41
69084;SHT31;56185;48.526;9.044;2023-09-18T08:55:02;19.48;82.36
69084;SHT31;56185;48.526;9.044;2023-09-18T08:57:29;19.58;81.47
69084;SHT31;56185;48.526;9.044;2023-09-18T08:59:57;19.59;79.17
69084;SHT31;56185;48.526;9.044;2023-09-18T09:02:23;19.57;81.24
69084;SHT31;56185;48.526;9.044;2023-09-18T09:04:49;19.58;80.98
69084;SHT31;56185;48.526;9.044;2023-09-18T09:07:15;19.59;82.19
69084;SHT31;56185;48.526;9.044;2023-09-18T09:09:40;19.55;81.28
69084;SHT31;56185;48.526;9.044;2023-09-18T09:12:06;19.64;81.68
69084;SHT31;56185;48.526;9.044;2023-09-18T09:14:31;19.76;81.92
69084;SHT31;56185;48.526;9.044;2023-09-18T09:16:56;19.72;81.37
69084;SHT31;56185;48.526;9.044;2023-09-18T09:19:33;19.85;81.56
69084;SHT31;56185;48.526;9.044;2023-09-18T09:21:59;19.78;81.07
69084;SHT31;56185;48.526;9.044;2023-09-18T09:24:41;19.76;81.29
69084;SHT31;56185;48.526;9.044;2023-09-18T09:27:07;19.85;81.49
69084;SHT31;56185;48.526;9.044;2023-09-18T09:29:34;19.79;81.28
69084;SHT31;56185;48.526;9.044;2023-09-18T09:32:17;19.75;81.60
69084;SHT31;56185;48.526;9.044;2023-09-18T09:34:43;19.69;82.17
69084;SHT31;56185;48.526;9.044;2023-09-18T09:37:09;19.81;79.80
69084;SHT31;56185;48.526;9.044;2023-09-18T09:39:34;19.89;81.37
69084;SHT31;56185;48.526;9.044;2023-09-18T09:42:01;19.85;81.73
69084;SHT31;56185;48.526;9.044;2023-09-18T09:44:27;20.00;82.12
69084;SHT31;56185;48.526;9.044;2023-09-18T09:46:52;19.99;82.34
69084;SHT31;56185;48.526;9.044;2023-09-18T09:49:18;20.04;82.64
69084;SHT31;56185;48.526;9.044;2023-09-18T09:51:43;20.19;81.79
69084;SHT31;56185;48.526;9.044;2023-09-18T09:54:08;20.10;82.03
69084;SHT31;56185;48.526;9.044;2023-09-18T09:56:40;20.17;81.51
69084;SHT31;56185;48.526;9.044;2023-09-18T09:59:06;20.17;81.91
69084;SHT31;56185;48.526;9.044;2023-09-18T10:01:31;20.23;81.22
69084;SHT31;56185;48.526;9.044;2023-09-18T10:03:57;20.15;81.34
69084;SHT31;56185;48.526;9.044;2023-09-18T10:06:23;20.10;82.22
69084;SHT31;56185;48.526;9.044;2023-09-18T10:08:49;20.09;81.63
69084;SHT31;56185;48.526;9.044;2023-09-18T10:11:15;20.10;79.10
69084;SHT31;56185;48.526;9.044;2023-09-18T10:13:46;19.98;79.57
69084;SHT31;56185;48.526;9.044;2023-09-18T10:16:13;20.04;79.24
69084;SHT31;56185;48.526;9.044;2023-09-18T10:18:50;19.95;79.25
69084;SHT31;56185;48.526;9.044;2023-09-18T10:26:27;19.90;80.72
69084;SHT31;56185;48.526;9.044;2023-09-18T10:28:55;19.92;80.52
69084;SHT31;56185;48.526;9.044;2023-09-18T10:31:21;19.88;80.28
69084;SHT31;56185;48.526;9.044;2023-09-18T10:33:48;19.85;79.06
69084;SHT31;56185;48.526;9.044;2023-09-18T10:36:13;19.79;80.57
69084;SHT31;56185;48.526;9.044;2023-09-18T10:38:40;19.74;81.21
69084;SHT31;56185;48.526;9.044;2023-09-18T10:41:06;19.81;81.40
69084;SHT31;56185;48.526;9.044;2023-09-18T10:43:33;19.79;81.43
69084;SHT31;56185;48.526;9.044;2023-09-18T10:45:58;19.68;81.15
69084;SHT31;56185;48.526;9.044;2023-09-18T10:48:24;19.74;81.61
69084;SHT31;56185;48.526;9.044;2023-09-18T10:50:50;19.72;81.68
69084;SHT31;56185;48.526;9.044;2023-09-18T10:53:25;19.71;81.84
69084;SHT31;56185;48.526;9.044;2023-09-18T10:55:51;19.85;81.85
69084;SHT31;56185;48.526;9.044;2023-09-18T10:58:23;19.89;80.63
69084;SHT31;56185;48.526;9.044;2023-09-18T11:00:49;19.89;81.96
69084;SHT31;56185;48.526;9.044;2023-09-18T11:03:22;19.90;82.25
69084;SHT31;56185;48.526;9.044;2023-09-18T11:06:11;19.90;82.44
69084;SHT31;56185;48.526;9.044;2023-09-18T11:08:43;19.92;82.58
69084;SHT31;56185;48.526;9.044;2023-09-18T11:11:10;20.04;82.93
69084;SHT31;56185;48.526;9.044;2023-09-18T11:13:49;20.00;82.04
69084;SHT31;56185;48.526;9.044;2023-09-18T11:16:18;19.96;81.93
69084;SHT31;56185;48.526;9.044;2023-09-18T11:21:30;20.04;81.22
69084;SHT31;56185;48.526;9.044;2023-09-18T11:24:02;20.13;79.69
69084;SHT31;56185;48.526;9.044;2023-09-18T11:26:31;20.12;79.84
69084;SHT31;56185;48.526;9.044;2023-09-18T11:29:01;20.08;80.12
69084;SHT31;56185;48.526;9.044;2023-09-18T11:36:47;20.10;80.50
69084;SHT31;56185;48.526;9.044;2023-09-18T11:39:13;20.09;80.71
69084;SHT31;56185;48.526;9.044;2023-09-18T11:41:39;20.19;80.23
69084;SHT31;56185;48.526;9.044;2023-09-18T11:46:35;20.19;80.53
69084;SHT31;56185;48.526;9.044;2023-09-18T11:49:02;20.17;80.60
69084;SHT31;56185;48.526;9.044;2023-09-18T11:51:27;20.17;80.20
69084;SHT31;56185;48.526;9.044;2023-09-18T11:53:55;20.19;80.99
69084;SHT31;56185;48.526;9.044;2023-09-18T11:56:22;20.15;81.69
69084;SHT31;56185;48.526;9.044;2023-09-18T11:58:48;20.19;80.93
69084;SHT31;56185;48.526;9.044;2023-09-18T12:01:14;20.16;80.35
69084;SHT31;56185;48.526;9.044;2023-09-18T12:03:39;20.16;80.75
69084;SHT31;56185;48.526;9.044;2023-09-18T12:06:04;20.09;80.92
69084;SHT31;56185;48.526;9.044;2023-09-18T12:08:32;20.22;80.96
69084;SHT31;56185;48.526;9.044;2023-09-18T12:10:58;20.10;78.94
69084;SHT31;56185;48.526;9.044;2023-09-18T12:13:27;20.20;79.16
69084;SHT31;56185;48.526;9.044;2023-09-18T12:16:03;20.29;79.64
69084;SHT31;56185;48.526;9.044;2023-09-18T12:18:29;20.37;78.08
69084;SHT31;56185;48.526;9.044;2023-09-18T12:20:54;20.34;77.59
69084;SHT31;56185;48.526;9.044;2023-09-18T12:23:19;20.46;78.91
69084;SHT31;56185;48.526;9.044;2023-09-18T12:25:50;20.47;78.37
69084;SHT31;56185;48.526;9.044;2023-09-18T12:28:16;20.57;76.29
69084;SHT31;56185;48.526;9.044;2023-09-18T12:30:43;20.77;76.73
69084;SHT31;56185;48.526;9.044;2023-09-18T12:33:09;20.90;77.60
69084;SHT31;56185;48.526;9.044;2023-09-18T12:35:34;20.91;77.32
69084;SHT31;56185;48.526;9.044;2023-09-18T12:38:00;20.95;75.37
69084;SHT31;56185;48.526;9.044;2023-09-18T12:40:27;21.12;75.34
69084;SHT31;56185;48.526;9.044;2023-09-18T12:42:56;21.09;74.91
69084;SHT31;56185;48.526;9.044;2023-09-18T12:45:23;21.14;76.09
69084;SHT31;56185;48.526;9.044;2023-09-18T12:47:49;21.18;75.34
69084;SHT31;56185;48.526;9.044;2023-09-18T12:50:15;21.24;77.10
69084;SHT31;56185;48.526;9.044;2023-09-18T12:52:41;21.36;74.73
69084;SHT31;56185;48.526;9.044;2023-09-18T12:55:07;21.38;73.99
69084;SHT31;56185;48.526;9.044;2023-09-18T12:57:33;21.46;74.06
69084;SHT31;56185;48.526;9.044;2023-09-18T12:59:58;21.46;72.76
69084;SHT31;56185;48.526;9.044;2023-09-18T13:02:24;21.28;70.76
69084;SHT31;56185;48.526;9.044;2023-09-18T13:04:54;21.26;71.98
69084;SHT31;56185;48.526;9.044;2023-09-18T13:07:19;21.28;71.05
69084;SHT31;56185;48.526;9.044;2023-09-18T13:10:06;21.35;71.22
69084;SHT31;56185;48.526;9.044;2023-09-18T13:12:49;21.32;72.45
69084;SHT31;56185;48.526;9.044;2023-09-18T13:15:32;21.45;72.41
69084;SHT31;56185;48.526;9.044;2023-09-18T13:18:00;21.60;69.66
69084;SHT31;56185;48.526;9.044;2023-09-18T13:20:28;21.89;70.86
69084;SHT31;56185;48.526;9.044;2023-09-18T13:22:56;22.08;68.85
69084;SHT31;56185;48.526;9.044;2023-09-18T13:25:23;22.04;68.82
69084;SHT31;56185;48.526;9.044;2023-09-18T13:27:52;22.05;68.28
69084;SHT31;56185;48.526;9.044;2023-09-18T13:30:18;22.08;68.35
69084;SHT31;56185;48.526;9.044;2023-09-18T13:32:44;21.96;66.64
69084;SHT31;56185;48.526;9.044;2023-09-18T13:35:10;21.84;67.07
69084;SHT31;56185;48.526;9.044;2023-09-18T13:37:35;21.74;67.22
69084;SHT31;56185;48.526;9.044;2023-09-18T13:40:00;21.66;65.04
69084;SHT31;56185;48.526;9.044;2023-09-18T13:42:27;21.63;66.62
69084;SHT31;56185;48.526;9.044;2023-09-18T13:44:52;21.55;65.77
69084;SHT31;56185;48.526;9.044;2023-09-18T13:47:17;21.59;66.48
69084;SHT31;56185;48.526;9.044;2023-09-18T13:49:42;21.62;67.09
69084;SHT31;56185;48.526;9.044;2023-09-18T13:52:08;21.60;65.69
69084;SHT31;56185;48.526;9.044;2023-09-18T13:54:33;21.55;65.68
69084;SHT31;56185;48.526;9.044;2023-09-18T13:56:58;21.60;66.34
69084;SHT31;56185;48.526;9.044;2023-09-18T13:59:24;21.62;66.51
69084;SHT31;56185;48.526;9.044;2023-09-18T14:01:52;21.62;66.54
69084;SHT31;56185;48.526;9.044;2023-09-18T14:04:18;21.73;66.52
69084;SHT31;56185;48.526;9.044;2023-09-18T14:06:43;21.79;66.16
69084;SHT31;56185;48.526;9.044;2023-09-18T14:09:08;21.77;64.58
69084;SHT31;56185;48.526;9.044;2023-09-18T14:11:33;21.72;65.24
69084;SHT31;56185;48.526;9.044;2023-09-18T14:14:02;21.79;66.57
69084;SHT31;56185;48.526;9.044;2023-09-18T14:16:30;21.80;66.02
69084;SHT31;56185;48.526;9.044;2023-09-18T14:18:55;21.84;66.04
69084;SHT31;56185;48.526;9.044;2023-09-18T14:21:20;21.82;65.49
69084;SHT31;56185;48.526;9.044;2023-09-18T14:23:45;21.89;65.50
69084;SHT31;56185;48.526;9.044;2023-09-18T14:26:11;21.77;65.13
69084;SHT31;56185;48.526;9.044;2023-09-18T14:28:36;21.80;64.78
69084;SHT31;56185;48.526;9.044;2023-09-18T14:31:03;21.74;64.93
69084;SHT31;56185;48.526;9.044;2023-09-18T14:33:28;21.70;65.86
69084;SHT31;56185;48.526;9.044;2023-09-18T14:35:53;21.74;65.16
69084;SHT31;56185;48.526;9.044;2023-09-18T14:38:18;21.77;65.62
69084;SHT31;56185;48.526;9.044;2023-09-18T14:40:44;21.79;65.74
69084;SHT31;56185;48.526;9.044;2023-09-18T14:43:09;21.79;66.08
69084;SHT31;56185;48.526;9.044;2023-09-18T14:45:36;21.86;65.69
69084;SHT31;56185;48.526;9.044;2023-09-18T14:48:02;21.93;65.12
69084;SHT31;56185;48.526;9.044;2023-09-18T14:50:27;22.00;65.49
69084;SHT31;56185;48.526;9.044;2023-09-18T14:52:52;22.04;64.76
69084;SHT31;56185;48.526;9.044;2023-09-18T14:55:21;22.11;64.77
69084;SHT31;56185;48.526;9.044;2023-09-18T14:57:46;22.13;65.02
69084;SHT31;56185;48.526;9.044;2023-09-18T15:00:11;22.13;64.53
69084;SHT31;56185;48.526;9.044;2023-09-18T15:02:37;22.07;64.14
69084;SHT31;56185;48.526;9.044;2023-09-18T15:05:02;22.04;64.83
69084;SHT31;56185;48.526;9.044;2023-09-18T15:07:27;22.04;63.95
69084;SHT31;56185;48.526;9.044;2023-09-18T15:09:53;21.92;63.71
69084;SHT31;56185;48.526;9.044;2023-09-18T15:12:18;21.92;64.25
69084;SHT31;56185;48.526;9.044;2023-09-18T15:15:02;21.89;64.29
69084;SHT31;56185;48.526;9.044;2023-09-18T15:17:27;21.87;64.08
69084;SHT31;56185;48.526;9.044;2023-09-18T15:19:52;21.90;64.36
69084;SHT31;56185;48.526;9.044;2023-09-18T15:22:18;21.77;63.05
69084;SHT31;56185;48.526;9.044;2023-09-18T15:24:47;21.92;63.42
69084;SHT31;56185;48.526;9.044;2023-09-18T15:27:13;21.97;63.66
69084;SHT31;56185;48.526;9.044;2023-09-18T15:29:38;21.80;63.99
69084;SHT31;56185;48.526;9.044;2023-09-18T15:32:03;21.84;63.85
69084;SHT31;56185;48.526;9.044;2023-09-18T15:34:29;21.84;64.16
69084;SHT31;56185;48.526;9.044;2023-09-18T15:36:54;21.80;63.97
69084;SHT31;56185;48.526;9.044;2023-09-18T15:39:19;21.82;64.51
69084;SHT31;56185;48.526;9.044;2023-09-18T15:41:45;21.77;63.66